createdAt,value
2023-03-23T00:01:55.805Z,13.56
2023-03-23T00:04:28.333Z,13.49
2023-03-23T00:06:58.031Z,13.59
2023-03-23T00:09:27.693Z,13.51
2023-03-23T00:12:06.143Z,13.49
2023-03-23T00:14:42.737Z,13.57
2023-03-23T00:17:15.571Z,13.50
2023-03-23T00:19:50.888Z,13.59
2023-03-23T00:22:22.945Z,13.75
2023-03-23T00:24:52.829Z,13.69
2023-03-23T00:27:23.700Z,13.67
2023-03-23T00:29:54.895Z,13.80
2023-03-23T00:32:29.746Z,13.80
2023-03-23T00:35:02.520Z,13.66
2023-03-23T00:37:33.581Z,13.71
2023-03-23T00:40:09.969Z,13.80
2023-03-23T00:42:40.646Z,13.72
2023-03-23T00:45:13.924Z,13.69
2023-03-23T00:47:47.873Z,13.83
2023-03-23T00:50:24.342Z,13.78
2023-03-23T00:53:00.545Z,13.62
2023-03-23T00:55:31.676Z,13.76
2023-03-23T00:58:01.373Z,13.65
2023-03-23T01:00:31.549Z,13.45
2023-03-23T01:03:01.366Z,13.54
2023-03-23T01:05:33.863Z,13.69
2023-03-23T01:08:03.624Z,13.59
2023-03-23T01:10:35.069Z,13.72
2023-03-23T01:13:06.239Z,13.84
2023-03-23T01:15:36.763Z,13.87
2023-03-23T01:18:07.303Z,13.85
2023-03-23T01:20:40.639Z,13.85
2023-03-23T01:23:10.279Z,13.75
2023-03-23T01:25:40.579Z,13.74
2023-03-23T01:28:11.723Z,13.79
2023-03-23T01:30:41.685Z,13.80
2023-03-23T01:33:11.713Z,13.79
2023-03-23T01:35:44.757Z,13.70
2023-03-23T01:38:14.838Z,13.45
2023-03-23T01:40:44.838Z,13.49
2023-03-23T01:43:18.267Z,13.38
2023-03-23T01:45:49.322Z,13.27
2023-03-23T01:48:22.658Z,13.15
2023-03-23T01:51:00.902Z,13.20
2023-03-23T01:53:37.293Z,13.40
2023-03-23T01:56:07.851Z,13.07
2023-03-23T01:58:40.952Z,13.14
2023-03-23T02:01:14.119Z,13.04
2023-03-23T02:03:49.579Z,12.91
2023-03-23T02:06:22.038Z,13.05
2023-03-23T02:09:10.567Z,12.79
2023-03-23T02:11:40.519Z,12.74
2023-03-23T02:14:10.257Z,12.79
2023-03-23T02:16:47.347Z,12.85
2023-03-23T02:19:44.377Z,12.90
2023-03-23T02:22:38.068Z,12.91
2023-03-23T02:25:43.515Z,12.82
2023-03-23T02:28:36.559Z,12.91
2023-03-23T02:31:24.993Z,12.89
2023-03-23T02:34:02.107Z,12.64
2023-03-23T02:36:38.240Z,12.69
2023-03-23T02:39:13.924Z,12.50
2023-03-23T02:41:47.347Z,12.59
2023-03-23T02:44:18.701Z,12.57
2023-03-23T02:46:48.795Z,12.63
2023-03-23T02:49:23.468Z,12.64
2023-03-23T02:51:55.296Z,12.65
2023-03-23T02:54:27.088Z,12.59
2023-03-23T02:56:59.972Z,12.51
2023-03-23T02:59:33.365Z,12.61
2023-03-23T03:02:09.271Z,12.64
2023-03-23T03:04:44.341Z,12.61
2023-03-23T03:07:37.984Z,12.53
2023-03-23T03:10:12.955Z,12.39
2023-03-23T03:12:52.256Z,12.56
2023-03-23T03:15:31.138Z,12.51
2023-03-23T03:18:07.318Z,12.60
2023-03-23T03:20:44.854Z,12.46
2023-03-23T03:23:16.962Z,12.53
2023-03-23T03:25:50.981Z,12.56
2023-03-23T03:28:29.829Z,12.65
2023-03-23T03:31:04.382Z,12.62
2023-03-23T03:33:36.016Z,12.59
2023-03-23T03:36:10.449Z,12.49
2023-03-23T03:38:48.142Z,12.38
2023-03-23T03:41:19.878Z,12.49
2023-03-23T03:43:50.722Z,12.35
2023-03-23T03:46:20.362Z,12.32
2023-03-23T03:48:52.884Z,12.35
2023-03-23T03:51:27.678Z,12.38
2023-03-23T03:53:58.128Z,12.22
2023-03-23T03:56:28.321Z,12.05
2023-03-23T03:59:21.840Z,12.32
2023-03-23T04:02:07.987Z,12.22
2023-03-23T04:04:37.726Z,12.10
2023-03-23T04:07:12.151Z,12.06
2023-03-23T04:09:42.609Z,12.07
2023-03-23T04:12:14.195Z,12.16
2023-03-23T04:15:07.343Z,12.09
2023-03-23T04:17:41.838Z,12.06
2023-03-23T04:20:16.567Z,12.10
2023-03-23T04:23:04.263Z,12.07
2023-03-23T04:25:36.990Z,12.05
2023-03-23T04:28:11.249Z,12.09
2023-03-23T04:30:53.824Z,11.97
2023-03-23T04:33:26.201Z,12.20
2023-03-23T04:36:17.219Z,12.08
2023-03-23T04:39:00.726Z,11.99
2023-03-23T04:41:30.730Z,12.12
2023-03-23T04:44:18.739Z,12.07
2023-03-23T04:46:55.309Z,11.88
2023-03-23T04:49:26.046Z,11.87
2023-03-23T04:52:05.232Z,12.05
2023-03-23T04:54:47.798Z,11.90
2023-03-23T04:57:18.479Z,11.98
2023-03-23T05:00:06.583Z,11.99
2023-03-23T05:02:43.280Z,11.81
2023-03-23T05:05:15.208Z,11.77
2023-03-23T05:07:45.864Z,11.65
2023-03-23T05:10:25.346Z,11.71
2023-03-23T05:12:57.576Z,11.66
2023-03-23T05:15:27.476Z,11.75
2023-03-23T05:17:57.424Z,11.66
2023-03-23T05:20:28.945Z,11.77
2023-03-23T05:23:13.781Z,11.77
2023-03-23T05:25:48.621Z,11.88
2023-03-23T05:28:23.084Z,11.77
2023-03-23T05:30:58.095Z,11.58
2023-03-23T05:33:32.164Z,11.57
2023-03-23T05:36:08.918Z,11.81
2023-03-23T05:38:51.072Z,11.96
2023-03-23T05:41:24.243Z,11.84
2023-03-23T05:43:54.420Z,11.61
2023-03-23T05:46:31.968Z,11.57
2023-03-23T05:49:03.866Z,12.07
2023-03-23T05:51:40.906Z,11.80
2023-03-23T05:54:17.721Z,11.70
2023-03-23T05:56:52.481Z,11.85
2023-03-23T05:59:44.290Z,11.53
2023-03-23T06:02:20.083Z,11.78
2023-03-23T06:04:50.282Z,11.80
2023-03-23T06:07:26.298Z,11.64
2023-03-23T06:10:02.306Z,11.52
2023-03-23T06:12:44.024Z,11.66
2023-03-23T06:15:32.587Z,11.55
2023-03-23T06:18:21.743Z,11.33
2023-03-23T06:21:07.879Z,11.44
2023-03-23T06:24:11.427Z,11.45
2023-03-23T06:26:45.304Z,11.45
2023-03-23T06:29:23.489Z,11.75
2023-03-23T06:32:01.089Z,11.55
2023-03-23T06:34:32.031Z,11.45
2023-03-23T06:37:24.575Z,11.57
2023-03-23T06:40:32.747Z,11.73
2023-03-23T06:43:02.780Z,11.77
2023-03-23T06:45:52.454Z,12.03
2023-03-23T06:48:54.212Z,11.69
2023-03-23T06:51:31.197Z,11.64
2023-03-23T06:54:01.391Z,11.64
2023-03-23T06:56:35.410Z,11.66
2023-03-23T06:59:05.409Z,11.69
2023-03-23T07:01:39.335Z,11.82
2023-03-23T07:04:09.614Z,11.73
2023-03-23T07:06:51.451Z,11.96
2023-03-23T07:09:25.566Z,11.91
2023-03-23T07:12:01.134Z,11.91
2023-03-23T07:14:38.712Z,11.90
2023-03-23T07:17:11.341Z,11.97
2023-03-23T07:19:45.923Z,12.21
2023-03-23T07:22:17.715Z,12.25
2023-03-23T07:24:53.098Z,12.16
2023-03-23T07:27:29.009Z,12.34
2023-03-23T07:30:01.907Z,12.34
2023-03-23T07:32:34.137Z,12.38
2023-03-23T07:35:05.048Z,12.51
2023-03-23T07:37:46.579Z,12.71
2023-03-23T07:40:19.155Z,12.73
2023-03-23T07:42:57.213Z,12.52
2023-03-23T07:45:52.948Z,12.47
2023-03-23T07:48:27.041Z,12.37
2023-03-23T07:50:56.828Z,12.44
2023-03-23T07:53:26.559Z,12.27
2023-03-23T07:56:11.483Z,12.37
2023-03-23T07:58:55.597Z,12.39
2023-03-23T08:01:25.391Z,12.48
2023-03-23T08:04:23.434Z,12.52
2023-03-23T08:07:13.426Z,12.43
2023-03-23T08:09:55.934Z,12.61
2023-03-23T08:12:41.501Z,12.55
2023-03-23T08:15:30.089Z,12.96
2023-03-23T08:18:17.757Z,12.92
2023-03-23T08:21:11.712Z,13.06
2023-03-23T08:24:06.309Z,13.00
2023-03-23T08:26:55.156Z,12.89
2023-03-23T08:29:49.178Z,12.91
2023-03-23T08:32:35.493Z,13.41
2023-03-23T08:35:22.552Z,13.28
2023-03-23T08:38:18.700Z,13.41
2023-03-23T08:41:11.739Z,13.62
2023-03-23T08:44:00.292Z,13.53
2023-03-23T08:46:48.385Z,13.37
2023-03-23T08:49:55.002Z,13.55
2023-03-23T08:52:50.478Z,13.61
2023-03-23T08:55:48.595Z,13.71
2023-03-23T08:58:32.002Z,13.67
2023-03-23T09:01:01.932Z,13.81
2023-03-23T09:03:56.956Z,13.85
2023-03-23T09:06:37.292Z,13.80
2023-03-23T09:09:08.468Z,13.86
2023-03-23T09:11:41.823Z,13.75
2023-03-23T09:14:11.731Z,14.01
2023-03-23T09:16:41.601Z,13.98
2023-03-23T09:19:13.599Z,14.19
2023-03-23T09:21:43.431Z,13.95
2023-03-23T09:24:13.195Z,14.23
2023-03-23T09:26:45.552Z,14.12
2023-03-23T09:29:15.259Z,14.37
2023-03-23T09:31:47.560Z,14.21
2023-03-23T09:34:17.906Z,14.34
2023-03-23T09:36:49.292Z,14.51
2023-03-23T09:39:19.970Z,14.45
2023-03-23T09:42:22.454Z,14.39
2023-03-23T09:45:04.945Z,14.30
2023-03-23T09:47:45.740Z,14.36
2023-03-23T09:50:19.523Z,14.31
2023-03-23T09:52:55.474Z,14.60
2023-03-23T09:55:26.361Z,14.62
2023-03-23T09:58:04.127Z,14.63
2023-03-23T10:00:38.680Z,14.90
2023-03-23T10:03:18.657Z,14.49
2023-03-23T10:05:50.569Z,14.53
2023-03-23T10:08:22.724Z,14.30
2023-03-23T10:11:03.462Z,14.43
2023-03-23T10:13:55.588Z,14.35
2023-03-23T10:16:30.414Z,14.45
2023-03-23T10:19:09.052Z,14.73
2023-03-23T10:21:42.726Z,14.60
2023-03-23T10:24:14.092Z,14.59
2023-03-23T10:26:52.379Z,14.50
2023-03-23T10:29:29.173Z,14.52
2023-03-23T10:32:03.222Z,14.40
2023-03-23T10:34:39.503Z,14.42
2023-03-23T10:37:15.530Z,14.44
2023-03-23T10:39:52.723Z,14.41
2023-03-23T10:42:28.740Z,14.60
2023-03-23T10:45:05.156Z,14.46
2023-03-23T10:47:35.896Z,14.41
2023-03-23T10:50:09.177Z,14.51
2023-03-23T10:52:40.722Z,14.38
2023-03-23T10:55:13.258Z,14.58
2023-03-23T10:57:44.798Z,14.60
2023-03-23T11:00:28.066Z,14.49
2023-03-23T11:03:05.165Z,14.52
2023-03-23T11:05:41.701Z,14.63
2023-03-23T11:08:17.080Z,14.59
2023-03-23T11:10:54.521Z,14.86
2023-03-23T11:13:26.236Z,14.75
2023-03-23T11:15:58.520Z,14.67
2023-03-23T11:18:31.093Z,14.80
2023-03-23T11:21:02.506Z,14.90
2023-03-23T11:23:34.190Z,14.60
2023-03-23T11:26:10.085Z,14.45
2023-03-23T11:28:40.833Z,14.71
2023-03-23T11:31:13.750Z,14.69
2023-03-23T11:33:57.464Z,14.91
2023-03-23T11:36:38.880Z,14.80
2023-03-23T11:39:24.142Z,14.99
2023-03-23T11:42:06.864Z,14.88
2023-03-23T11:44:45.805Z,14.66
2023-03-23T11:47:28.678Z,14.85
2023-03-23T11:50:04.506Z,14.68
2023-03-23T11:52:43.623Z,14.73
2023-03-23T11:55:18.590Z,14.71
2023-03-23T11:57:48.558Z,14.80
2023-03-23T12:00:20.337Z,14.89
2023-03-23T12:03:00.653Z,15.30
2023-03-23T12:05:55.352Z,15.44
2023-03-23T12:08:38.491Z,15.67
2023-03-23T12:11:16.296Z,15.32
2023-03-23T12:14:02.805Z,15.34
2023-03-23T12:16:43.578Z,15.31
2023-03-23T12:19:24.258Z,15.31
2023-03-23T12:22:04.510Z,15.73
2023-03-23T12:24:50.725Z,15.62
2023-03-23T12:27:27.291Z,15.73
2023-03-23T12:30:22.710Z,15.53
2023-03-23T12:33:14.028Z,15.68
2023-03-23T12:35:58.267Z,16.16
2023-03-23T12:38:48.100Z,15.77
2023-03-23T12:41:21.258Z,15.82
2023-03-23T12:43:56.352Z,15.73
2023-03-23T12:46:54.571Z,15.75
2023-03-23T12:49:28.954Z,15.92
2023-03-23T12:52:05.762Z,15.69
2023-03-23T12:54:40.411Z,15.72
2023-03-23T12:57:16.420Z,15.70
2023-03-23T12:59:51.107Z,15.49
2023-03-23T13:02:25.856Z,15.70
2023-03-23T13:05:01.148Z,15.58
2023-03-23T13:07:39.831Z,15.88
2023-03-23T13:10:22.192Z,15.97
2023-03-23T13:12:53.836Z,15.97
2023-03-23T13:15:34.842Z,16.02
2023-03-23T13:18:13.540Z,16.18
2023-03-23T13:20:56.569Z,16.05
2023-03-23T13:23:32.830Z,16.42
2023-03-23T13:26:05.800Z,15.97
2023-03-23T13:28:38.425Z,15.84
2023-03-23T13:31:17.339Z,15.73
2023-03-23T13:33:52.912Z,15.75
2023-03-23T13:36:31.910Z,16.26
2023-03-23T13:39:08.757Z,16.30
2023-03-23T13:41:49.232Z,16.62
2023-03-23T13:44:22.713Z,16.34
2023-03-23T13:47:02.040Z,16.24
2023-03-23T13:49:31.926Z,16.52
2023-03-23T13:52:18.618Z,15.95
2023-03-23T13:54:52.111Z,16.14
2023-03-23T13:57:30.176Z,16.26
2023-03-23T14:00:02.355Z,16.47
2023-03-23T14:02:42.624Z,16.28
2023-03-23T14:05:38.526Z,16.20
2023-03-23T14:08:17.384Z,16.30
2023-03-23T14:10:58.406Z,16.34
2023-03-23T14:13:34.478Z,16.35
2023-03-23T14:16:07.257Z,16.32
2023-03-23T14:18:40.898Z,16.14
2023-03-23T14:21:19.635Z,16.34
2023-03-23T14:23:49.321Z,16.42
2023-03-23T14:26:24.368Z,16.35
2023-03-23T14:28:57.015Z,15.99
2023-03-23T14:31:29.304Z,15.91
2023-03-23T14:34:01.028Z,15.88
2023-03-23T14:36:32.892Z,15.90
2023-03-23T14:39:07.557Z,15.67
2023-03-23T14:41:40.819Z,15.48
2023-03-23T14:44:13.211Z,15.36
2023-03-23T14:46:43.004Z,15.21
2023-03-23T14:49:18.781Z,15.29
2023-03-23T14:51:52.819Z,15.39
2023-03-23T14:54:26.756Z,15.46
2023-03-23T14:56:59.692Z,15.32
2023-03-23T14:59:29.431Z,15.35
2023-03-23T15:02:02.893Z,15.12
2023-03-23T15:04:32.937Z,15.18
2023-03-23T15:07:05.641Z,15.20
2023-03-23T15:09:36.020Z,15.22
2023-03-23T15:12:09.013Z,15.31
2023-03-23T15:14:48.545Z,15.31
2023-03-23T15:17:23.919Z,15.41
2023-03-23T15:19:55.520Z,15.25
2023-03-23T15:22:29.994Z,15.37
2023-03-23T15:25:12.440Z,15.17
2023-03-23T15:27:47.460Z,15.18
2023-03-23T15:30:22.942Z,15.37
2023-03-23T15:32:56.374Z,15.16
2023-03-23T15:35:28.570Z,15.11
2023-03-23T15:38:03.546Z,15.11
2023-03-23T15:40:37.418Z,15.20
2023-03-23T15:43:20.758Z,15.21
2023-03-23T15:46:01.872Z,15.23
2023-03-23T15:48:32.039Z,15.19
2023-03-23T15:51:02.608Z,15.37
2023-03-23T15:53:34.880Z,15.29
2023-03-23T15:56:06.904Z,15.25
2023-03-23T15:58:40.471Z,15.38
2023-03-23T16:01:16.218Z,14.68
2023-03-23T16:03:50.564Z,14.12
2023-03-23T16:06:25.155Z,14.07
2023-03-23T16:08:56.025Z,13.77
2023-03-23T16:11:27.855Z,13.73
2023-03-23T16:14:00.618Z,13.60
2023-03-23T16:16:32.669Z,13.61
2023-03-23T16:19:02.503Z,13.53
2023-03-23T16:21:32.306Z,13.49
2023-03-23T16:24:02.849Z,13.37
2023-03-23T16:26:32.870Z,13.39
2023-03-23T16:29:12.944Z,13.69
2023-03-23T16:31:46.840Z,13.57
2023-03-23T16:34:16.529Z,13.44
2023-03-23T16:36:46.190Z,13.31
2023-03-23T16:39:16.052Z,13.41
2023-03-23T16:41:45.823Z,13.88
2023-03-23T16:44:18.114Z,13.42
2023-03-23T16:46:47.980Z,13.55
2023-03-23T16:49:17.684Z,13.19
2023-03-23T16:51:48.325Z,13.34
2023-03-23T16:54:18.550Z,13.55
2023-03-23T16:56:49.241Z,13.88
2023-03-23T16:59:22.176Z,13.59
2023-03-23T17:01:52.084Z,13.79
2023-03-23T17:04:21.790Z,13.64
2023-03-23T17:06:51.864Z,13.57
2023-03-23T17:09:21.924Z,13.99
2023-03-23T17:11:51.658Z,14.12
2023-03-23T17:14:24.728Z,13.85
2023-03-23T17:16:54.802Z,14.12
2023-03-23T17:19:24.511Z,14.15
2023-03-23T17:21:54.350Z,14.20
2023-03-23T17:24:24.611Z,14.31
2023-03-23T17:26:54.253Z,14.05
2023-03-23T17:29:26.640Z,13.87
2023-03-23T17:31:56.351Z,14.11
2023-03-23T17:34:26.624Z,13.74
2023-03-23T17:36:56.899Z,13.55
2023-03-23T17:39:26.557Z,13.40
2023-03-23T17:41:56.604Z,13.44
2023-03-23T17:44:29.635Z,13.33
2023-03-23T17:47:00.762Z,14.22
2023-03-23T17:49:30.960Z,14.05
2023-03-23T17:52:01.180Z,13.26
2023-03-23T17:54:31.855Z,13.06
2023-03-23T17:57:04.249Z,13.29
2023-03-23T17:59:36.542Z,13.69
2023-03-23T18:02:06.300Z,13.25
2023-03-23T18:04:36.651Z,13.34
2023-03-23T18:07:06.676Z,13.73
2023-03-23T18:09:36.384Z,13.71
2023-03-23T18:12:06.193Z,13.61
2023-03-23T18:14:40.195Z,13.13
2023-03-23T18:17:09.985Z,12.84
2023-03-23T18:19:39.655Z,13.40
2023-03-23T18:22:09.466Z,14.04
2023-03-23T18:24:39.176Z,13.96
2023-03-23T18:27:08.946Z,14.24
2023-03-23T18:29:41.219Z,13.37
2023-03-23T18:32:10.928Z,13.76
2023-03-23T18:34:43.350Z,14.07
2023-03-23T18:37:13.141Z,14.05
2023-03-23T18:39:43.117Z,14.07
2023-03-23T18:42:13.035Z,14.15
2023-03-23T18:44:45.703Z,13.66
2023-03-23T18:47:15.738Z,13.86
2023-03-23T18:49:47.493Z,14.51
2023-03-23T18:52:17.300Z,14.45
2023-03-23T18:54:47.388Z,14.15
2023-03-23T18:57:21.505Z,14.08
2023-03-23T18:59:54.347Z,14.53
2023-03-23T19:02:24.769Z,14.50
2023-03-23T19:04:54.738Z,14.21
2023-03-23T19:07:24.476Z,13.77
2023-03-23T19:09:54.255Z,13.69
2023-03-23T19:12:24.041Z,13.76
2023-03-23T19:14:56.595Z,13.87
2023-03-23T19:17:27.119Z,13.79
2023-03-23T19:22:27.665Z,14.51
2023-03-23T19:24:57.785Z,14.71
2023-03-23T19:27:27.742Z,14.16
2023-03-23T19:30:00.560Z,14.66
2023-03-23T19:32:30.727Z,14.72
2023-03-23T19:35:01.340Z,14.51
2023-03-23T19:37:34.690Z,14.80
2023-03-23T19:40:24.159Z,14.66
2023-03-23T19:42:57.451Z,14.20
2023-03-23T19:45:29.814Z,13.97
2023-03-23T19:47:59.669Z,14.11
2023-03-23T19:50:29.829Z,13.85
2023-03-23T19:53:00.613Z,13.79
2023-03-23T19:55:30.761Z,13.77
2023-03-23T19:58:00.483Z,13.65
2023-03-23T20:00:34.911Z,13.75
2023-03-23T20:03:06.661Z,13.80
2023-03-23T20:05:37.978Z,13.63
2023-03-23T20:08:09.277Z,13.65
2023-03-23T20:10:40.819Z,14.01
2023-03-23T20:13:11.075Z,13.90
2023-03-23T20:15:44.014Z,13.43
2023-03-23T20:18:18.908Z,13.48
2023-03-23T20:20:51.701Z,13.13
2023-03-23T20:23:22.470Z,13.49
2023-03-23T20:25:52.916Z,13.01
2023-03-23T20:28:22.589Z,12.95
2023-03-23T20:31:16.983Z,13.01
2023-03-23T20:34:00.876Z,12.97
2023-03-23T20:36:35.179Z,13.11
2023-03-23T20:39:08.308Z,13.03
2023-03-23T20:41:40.529Z,12.84
2023-03-23T20:44:16.059Z,12.77
2023-03-23T20:46:50.276Z,12.70
2023-03-23T20:49:21.267Z,12.70
2023-03-23T20:51:52.041Z,12.70
2023-03-23T20:54:23.229Z,12.48
2023-03-23T20:56:54.894Z,12.69
2023-03-23T20:59:28.679Z,12.62
2023-03-23T21:02:00.928Z,12.20
2023-03-23T21:04:30.756Z,12.40
2023-03-23T21:07:01.417Z,12.44
2023-03-23T21:09:31.112Z,12.42
2023-03-23T21:12:04.596Z,12.36
2023-03-23T21:14:34.294Z,12.57
2023-03-23T21:17:07.340Z,12.61
2023-03-23T21:19:37.983Z,12.81
2023-03-23T21:22:09.841Z,12.82
2023-03-23T21:24:40.500Z,13.09
2023-03-23T21:27:10.204Z,13.13
2023-03-23T21:29:39.834Z,13.50
2023-03-23T21:32:12.078Z,13.04
2023-03-23T21:34:43.441Z,12.80
2023-03-23T21:37:15.266Z,12.60
2023-03-23T21:39:44.909Z,13.05
2023-03-23T21:42:15.728Z,12.75
2023-03-23T21:44:45.501Z,12.64
2023-03-23T21:47:18.298Z,12.43
2023-03-23T21:49:48.380Z,12.60
2023-03-23T21:52:18.168Z,12.31
2023-03-23T21:54:48.945Z,12.15
2023-03-23T21:57:18.789Z,12.45
2023-03-23T21:59:48.476Z,12.54
2023-03-23T22:02:20.874Z,12.61
2023-03-23T22:05:09.887Z,12.55
2023-03-23T22:07:58.026Z,12.71
2023-03-23T22:10:27.734Z,12.59
2023-03-23T22:12:57.713Z,12.49
2023-03-23T22:15:28.218Z,12.45
2023-03-23T22:18:01.049Z,12.17
2023-03-23T22:20:31.164Z,12.29
2023-03-23T22:23:01.069Z,12.39
2023-03-23T22:25:33.684Z,12.21
2023-03-23T22:28:04.707Z,12.36
2023-03-23T22:30:34.936Z,12.38
2023-03-23T22:33:07.505Z,12.51
2023-03-23T22:35:37.326Z,12.59
2023-03-23T22:38:07.366Z,12.62
2023-03-23T22:40:37.098Z,12.13
2023-03-23T22:43:06.775Z,12.21
2023-03-23T22:45:36.541Z,12.09
2023-03-23T22:48:08.959Z,12.24
2023-03-23T22:50:38.697Z,12.26
2023-03-23T22:53:08.376Z,12.29
2023-03-23T22:55:38.108Z,12.37
2023-03-23T22:58:07.774Z,12.22
2023-03-23T23:00:38.485Z,12.34
2023-03-23T23:03:12.014Z,12.51
2023-03-23T23:05:45.459Z,12.51
2023-03-23T23:08:17.725Z,12.62
2023-03-23T23:10:50.359Z,12.63
2023-03-23T23:13:20.793Z,12.11
2023-03-23T23:15:52.922Z,12.00
2023-03-23T23:18:26.346Z,12.26
2023-03-23T23:20:57.770Z,12.31
2023-03-23T23:23:29.174Z,11.96
2023-03-23T23:25:59.363Z,12.18
2023-03-23T23:28:29.757Z,12.50
2023-03-23T23:30:59.747Z,12.19
2023-03-23T23:33:32.133Z,12.20
2023-03-23T23:36:02.528Z,12.36
2023-03-23T23:38:32.291Z,12.52
2023-03-23T23:41:01.980Z,12.65
2023-03-23T23:43:31.692Z,11.99
2023-03-23T23:46:01.398Z,12.04
2023-03-23T23:48:34.375Z,12.27
2023-03-23T23:51:04.071Z,12.20
2023-03-23T23:53:34.171Z,12.14
2023-03-23T23:56:06.143Z,12.38
2023-03-23T23:58:35.905Z,12.33
